Latest Coastal Weather Observations for Marion Reef

IDQ60701

Issued at 1:51 pm EST Sunday 25 January 2015 (issued every 10 minutes, with the page automatically refreshed every 10 minutes)

About coastal observations | Map of coastal stations | Coastal observations for QLD | Marine services | Other Formats
Station Details ID: 200704 Name: MARION REEF Lat: -19.10 Lon: 152.39 Height: 2.0 m
Data from the previous 72 hours. | See also: Recent months for locations in Queensland
Date/Time
EST
Temp

°C
Wind Pressure Rain
since 9am
mm
Weather Cloud Vis
km
Sea
Height
m
Swell
Dir
 
Speed
knots
Gust
knots
hPa Trend Height
m
Period
s
Dir
25/01:30pm 29.3 NW 13 14 1006.9 - - - - - - - - -
25/01:00pm 29.1 NW 12 13 1007.0 - - - - - - - - -
25/12:30pm 28.9 NW 11 12 1007.3 - - - - - - - - -
25/12:00pm 28.9 NW 11 12 1007.5 - - - - - - - - -
25/11:30am 29.0 NW 11 13 1008.0 - - - - - - - - -
25/11:00am 29.2 NW 11 13 1008.1 - - - - - - - - -
25/10:30am 29.3 WNW 11 14 1008.4 - - - - - - - - -
25/10:00am 29.3 WNW 13 15 1008.6 - - - - - - - - -
25/09:30am 29.0 WNW 13 16 1008.6 - - - - - - - - -
25/09:00am 29.0 W 14 17 1008.6 - - - - - - - - -
25/08:30am 28.8 WNW 15 17 1008.8 - - - - - - - - -
25/08:00am 28.7 WNW 16 18 1008.9 - - - - - - - - -
25/07:30am 28.8 WNW 15 17 1009.1 - - - - - - - - -
25/07:00am 28.6 WNW 15 17 1008.7 - - - - - - - - -
25/06:30am 28.6 WNW 16 18 1008.6 - - - - - - - - -
25/06:00am 28.3 WNW 18 20 1008.2 - - - - - - - - -
25/05:30am 28.2 NW 17 20 1007.7 - - - - - - - - -
25/05:00am 28.4 NW 19 22 1007.2 - - - - - - - - -
25/04:30am 28.3 NW 18 21 1007.2 - - - - - - - - -
25/04:00am 28.2 NW 17 22 1007.1 - - - - - - - - -
25/03:30am 28.3 NW 17 19 1007.2 - - - - - - - - -
25/03:00am 28.3 NW 18 22 1007.0 - - - - - - - - -
25/02:30am 28.2 NW 17 21 1007.2 - - - - - - - - -
25/02:00am 28.3 NW 17 20 1007.2 - - - - - - - - -
25/01:30am 28.2 NW 18 21 1007.8 - - - - - - - - -
25/01:00am 28.3 NW 17 20 1007.9 - - - - - - - - -
25/12:30am 28.4 NW 17 20 1008.4 - - - - - - - - -
25/12:03am 27.8 W 19 29 1008.6 - - - - - - - - -
25/12:00am 27.3 W 22 30 1008.7 - - - - - - - - -
 
Date/Time
EST
Temp

°C
Wind Pressure Rain
since 9am
mm
Weather Cloud Vis
km
Sea
Height
m
Swell
Dir
 
Speed
knots
Gust
knots
hPa Trend Height
m
Period
s
Dir
24/11:52pm 26.9 WNW 22 26 1008.7 - - - - - - - - -
24/11:30pm 28.4 NNW 13 15 1008.8 - - - - - - - - -
24/11:00pm 28.1 NNW 15 18 1008.6 - - - - - - - - -
24/10:30pm 28.3 NNW 12 15 1008.9 - - - - - - - - -
24/10:00pm 28.4 NNW 12 14 1008.9 - - - - - - - - -
24/09:30pm 28.3 NW 11 13 1008.7 - - - - - - - - -
24/09:00pm 27.9 NNW 13 14 1008.5 - - - - - - - - -
24/08:30pm 28.5 NNW 10 11 1008.3 - - - - - - - - -
24/08:00pm 28.4 NNW 11 14 1008.2 - - - - - - - - -
24/07:30pm 28.5 NNW 10 11 1007.9 - - - - - - - - -
24/07:00pm 28.6 NNW 10 12 1007.5 - - - - - - - - -
24/06:30pm 28.8 NW 12 14 1007.1 - - - - - - - - -
24/06:00pm 28.8 NW 12 15 1007.1 - - - - - - - - -
24/05:30pm 28.9 NNW 12 14 1006.9 - - - - - - - - -
24/05:00pm 29.0 NNW 13 16 1006.5 - - - - - - - - -
24/04:30pm 29.0 NNW 14 17 1006.4 - - - - - - - - -
24/04:00pm 29.0 NNW 14 16 1006.1 - - - - - - - - -
24/03:30pm 28.9 NW 14 16 1006.1 - - - - - - - - -
24/03:00pm 29.0 NW 16 18 1006.1 - - - - - - - - -
24/02:30pm 28.8 NW 15 18 1006.5 - - - - - - - - -
24/02:00pm 28.8 NW 16 19 1006.4 - - - - - - - - -
24/01:30pm 28.7 NW 16 19 1006.7 - - - - - - - - -
24/01:00pm 28.9 NNW 15 18 1006.8 - - - - - - - - -
24/12:30pm 28.8 NW 16 18 1007.1 - - - - - - - - -
24/12:00pm 28.6 NW 16 17 1007.4 - - - - - - - - -
24/11:30am 28.6 NW 15 18 1007.7 - - - - - - - - -
24/11:00am 28.5 NW 17 19 1007.7 - - - - - - - - -
24/10:30am 28.6 NW 17 19 1008.0 - - - - - - - - -
24/10:00am 28.5 NW 16 19 1008.1 - - - - - - - - -
24/09:30am 28.5 NW 18 22 1008.3 - - - - - - - - -
24/09:00am 28.5 NW 18 20 1008.0 - - - - - - - - -
24/08:30am 27.9 NW 18 25 1007.6 - - - - - - - - -
24/08:00am 28.5 NW 16 20 1007.4 - - - - - - - - -
24/07:30am 28.4 NW 17 20 1007.3 - - - - - - - - -
24/07:00am 28.5 NW 19 23 1007.1 - - - - - - - - -
24/06:30am 28.4 NW 17 22 1006.9 - - - - - - - - -
24/06:00am 28.4 NW 17 21 1006.5 - - - - - - - - -
24/05:30am 28.3 NW 18 21 1006.2 - - - - - - - - -
24/05:00am 28.3 WNW 19 23 1005.9 - - - - - - - - -
24/04:30am 28.4 WNW 20 23 1005.6 - - - - - - - - -
24/04:00am 28.1 WNW 21 25 1005.2 - - - - - - - - -
24/03:30am 28.1 WNW 20 23 1005.3 - - - - - - - - -
24/03:00am 28.1 NW 17 20 1005.1 - - - - - - - - -
24/02:30am 28.0 NW 16 21 1005.3 - - - - - - - - -
24/02:00am 28.0 NW 15 19 1005.1 - - - - - - - - -
24/01:30am 28.1 NW 15 19 1005.4 - - - - - - - - -
24/01:00am 28.0 NW 15 17 1005.2 - - - - - - - - -
24/12:30am 28.0 NW 13 15 1005.7 - - - - - - - - -
24/12:00am 28.0 NW 15 17 1005.9 - - - - - - - - -
 
Date/Time
EST
Temp

°C
Wind Pressure Rain
since 9am
mm
Weather Cloud Vis
km
Sea
Height
m
Swell
Dir
 
Speed
knots
Gust
knots
hPa Trend Height
m
Period
s
Dir
23/11:30pm 27.9 NW 15 18 1006.5 - - - - - - - - -
23/11:00pm 28.0 NW 15 18 1006.8 - - - - - - - - -
23/10:30pm 28.1 NW 15 17 1006.8 - - - - - - - - -
23/10:00pm 28.1 NW 13 15 1006.6 - - - - - - - - -
23/09:30pm 28.2 NW 14 16 1006.5 - - - - - - - - -
23/09:00pm 28.1 NW 13 15 1006.3 - - - - - - - - -
23/08:30pm 28.1 NW 14 16 1006.0 - - - - - - - - -
23/08:00pm 27.9 NW 15 18 1005.8 - - - - - - - - -
23/07:30pm 27.9 NW 15 17 1005.8 - - - - - - - - -
23/07:00pm 27.9 NW 16 18 1005.3 - - - - - - - - -
23/06:30pm 27.7 NW 17 20 1004.9 - - - - - - - - -
23/06:00pm 27.6 NNW 16 19 1004.4 - - - - - - - - -
23/05:30pm 27.4 NNW 15 17 1004.2 - - - - - - - - -
23/05:00pm 27.1 NNW 14 16 1003.9 - - - - - - - - -
23/04:30pm 26.8 NNW 12 15 1003.3 - - - - - - - - -
23/04:00pm 26.6 NNW 11 14 1002.8 - - - - - - - - -
23/03:30pm 26.7 NW 9 11 1003.1 - - - - - - - - -
23/03:00pm 26.2 NW 7 8 1003.5 - - - - - - - - -
23/02:30pm 26.2 NW 7 10 1004.1 - - - - - - - - -
23/02:00pm 26.2 W 5 7 1004.1 - - - - - - - - -
23/01:30pm 26.0 W 9 13 1004.8 - - - - - - - - -
23/01:00pm 25.9 W 18 21 1004.8 - - - - - - - - -
23/12:30pm 26.5 WNW 11 19 1005.3 - - - - - - - - -
23/12:09pm 26.7 W 18 21 1005.3 - - - - - - - - -
23/12:00pm 26.6 W 7 11 1005.5 - - - - - - - - -
23/11:30am 26.7 N 4 5 1005.6 - - - - - - - - -
23/11:00am 26.6 NNW 5 7 1005.9 - - - - - - - - -
23/10:30am 26.1 N 9 11 1006.1 - - - - - - - - -
23/10:00am 26.0 NNW 7 8 1006.2 - - - - - - - - -
23/09:30am 25.2 W 12 17 1006.4 - - - - - - - - -
23/09:00am 25.4 WNW 13 16 1006.8 - - - - - - - - -
23/08:30am 24.9 WNW 21 25 1007.0 - - - - - - - - -
23/08:16am 25.2 WNW 18 30 1007.0 - - - - - - - - -
23/08:00am 25.5 NW 18 26 1006.7 - - - - - - - - -
23/07:56am 25.5 NW 18 26 1006.8 - - - - - - - - -
23/07:30am 26.1 WNW 10 15 1006.5 - - - - - - - - -
23/07:02am 25.6 WNW 18 24 1006.5 - - - - - - - - -
23/07:00am 26.0 WNW 16 11 1006.5 - - - - - - - - -
23/06:30am 27.0 N 9 13 1006.4 - - - - - - - - -
23/06:00am 27.7 NNW 16 20 1006.2 - - - - - - - - -
23/05:30am 27.7 NNW 17 22 1005.7 - - - - - - - - -
23/05:00am 28.3 N 13 17 1005.2 - - - - - - - - -
23/04:30am 28.2 NNW 16 20 1004.8 - - - - - - - - -
23/04:00am 28.2 NNW 17 21 1004.6 - - - - - - - - -
23/03:30am 28.3 NNW 16 21 1004.7 - - - - - - - - -
23/03:00am 28.2 NW 15 16 1004.7 - - - - - - - - -
23/02:30am 28.0 NNW 16 19 1004.5 - - - - - - - - -
23/02:00am 28.0 NNW 17 19 1004.8 - - - - - - - - -
23/01:30am 28.3 NNW 16 19 1005.4 - - - - - - - - -
23/01:00am 28.3 NNW 15 19 1005.2 - - - - - - - - -
23/12:30am 28.2 NNW 16 19 1005.5 - - - - - - - - -
23/12:00am 28.1 NNW 14 18 1005.9 - - - - - - - - -
 
Date/Time
EST
Temp

°C
Wind Pressure Rain
since 9am
mm
Weather Cloud Vis
km
Sea
Height
m
Swell
Dir
 
Speed
knots
Gust
knots
hPa Trend Height
m
Period
s
Dir
22/11:30pm 28.1 NNW 16 19 1006.5 - - - - - - - - -
22/11:00pm 27.9 NNW 14 18 1006.1 - - - - - - - - -
22/10:30pm 28.0 N 18 20 1006.8 - - - - - - - - -
22/10:00pm 28.1 NNW 18 21 1006.6 - - - - - - - - -
22/09:30pm 28.2 NNW 17 20 1006.4 - - - - - - - - -
22/09:00pm 28.1 N 17 21 1006.0 - - - - - - - - -
22/08:30pm 27.9 N 17 22 1006.1 - - - - - - - - -
22/08:00pm 27.7 N 20 25 1006.0 - - - - - - - - -
22/07:30pm 28.6 N 17 19 1005.5 - - - - - - - - -
22/07:00pm 28.5 N 17 20 1005.2 - - - - - - - - -
22/06:30pm 28.6 N 17 20 1005.0 - - - - - - - - -
22/06:00pm 28.3 NNE 11 13 1004.6 - - - - - - - - -
22/05:30pm 28.4 NNE 12 14 1004.4 - - - - - - - - -
22/05:00pm 28.4 NNE 12 14 1004.0 - - - - - - - - -
22/04:30pm 28.3 NNE 10 13 1003.7 - - - - - - - - -
22/04:00pm 28.1 NNE 12 15 1003.8 - - - - - - - - -
22/03:30pm 28.2 N 14 16 1004.1 - - - - - - - - -
22/03:00pm 27.9 N 12 14 1004.1 - - - - - - - - -
22/02:30pm 28.1 N 13 15 1004.4 - - - - - - - - -
22/02:00pm 28.0 N 14 15 1004.6 - - - - - - - - -

Other Formats:

Comma delimited format used in spreadsheet applications
http://www.bom.gov.au/fwo/IDQ60701/IDQ60701.94298.axf

JavaScript Object Notation format (JSON) in row-major order
http://www.bom.gov.au/fwo/IDQ60701/IDQ60701.94298.json